UMMM

Details ICAO UMMM (MHP)
Name MINSK 1
Region Belarus and Russia (Kaliningrad Oblast)
Timezone Europe/Minsk (UTC+3.0)
Plans Departing 42
Arriving 45
Stats Elevation 748 ft / 228 m (AMSL)
Location 53.864471° 27.539682°
Runways 1
Magnetic Variation 7.878° E
Sunrise 2017-12-18 06:25:31 UTC / 2017-12-18 09:25:31 Local
Sunset 2017-12-18 13:50:01 UTC / 2017-12-18 16:50:01 Local
Advertisement - Login to hide

Runways

ID Width Length Bearing (true) Bearing (mag) Surface Threshold Offset Overrun Length
12 197 ft / 60 m 6,524 ft / 1,989 m 125.44° 117.56° Asphalt 328 ft / 100 m 0 ft / 0 m
30 197 ft / 60 m 6,524 ft / 1,989 m 305.46° 297.58° Asphalt 0 ft / 0 m 0 ft / 0 m

Approach Navaids

Runway Type Ident Frequency Range Bearing (true) Bearing (mag) Slope Elevation
12 Localiser IGK 110.50 MHz 18 nm / 33 km 123.22° 115.34° - 748 ft / 228 m (AMSL)
12 Glidescope IGK 110.50 MHz 10 nm / 19 km 125.45° 117.57° 3.00° 748 ft / 228 m (AMSL)

Map

Weather


0- 5 10 15 20 25 30 35+ Temperature / ° C

Clouds and Precipitation
Forecast for 2017-12-18 12:00 UTC. Updated 13 minutes ago

Ground ~20,000 ft ~40,000 ft Winds

METAR

UMMM 181100Z 34004MPS 9999 BKN014 M01/M04 Q1022 RMK QFE746

TAF

Not found

Frequencies

Tower 128.00 MHz START
Warning: Do not use this data for real-world aviation or navigation. No guarantee of current accuracy is given.